Wetterdaten vom Mittwoch, 21. Februar 2018

Temperatur Taupunkt Windchill Luftfeuchte Luftdruck Solarstrahlung Regen ET
(Verdunstung von Wasser)
Wind
Max -1.3 °C
00:00
-3.6 °C
00:25
-1.8 °C
01:20
88%
03:25
1022.5 hPa
04:30
0 W/m²
00:00
13.4 km/h
00:30 km/h
Durchschnitt -2.2 °C -4.2 °C -3.2 °C 86% 1021.8 hPa 0 W/m² 0 mm 0.025 mm 3.4 km/h
Min -3.2 °C
04:35
-4.9 °C
04:25
-7.5 °C
00:30
83%
00:00
1021.1 hPa
00:00
0 km/h (Böe)
01:35 km/h
Zeit
00:00 -1.3 °C -3.8 °C -5.0 °C 83% 1021.1 hPa 0 W/m² 0.0 mm 0.000 mm 10.1 km/h
00:05 -1.3 °C -3.8 °C -4.7 °C 83% 1021.2 hPa 0 W/m² 0.0 mm 0.000 mm 9.8 km/h
00:10 -1.3 °C -3.8 °C -5.2 °C 83% 1021.2 hPa 0 W/m² 0.0 mm 0.000 mm 10.4 km/h
00:15 -1.3 °C -3.8 °C -4.3 °C 83% 1021.4 hPa 0 W/m² 0.0 mm 0.000 mm 9.3 km/h
00:20 -1.3 °C -3.8 °C -4.9 °C 83% 1021.3 hPa 0 W/m² 0.0 mm 0.000 mm 10.0 km/h
00:25 -1.3 °C -3.6 °C -5.3 °C 84% 1021.4 hPa 0 W/m² 0.0 mm 0.000 mm 10.5 km/h
00:30 -1.3 °C -3.8 °C -7.5 °C 83% 1021.3 hPa 0 W/m² 0.0 mm 0.000 mm 13.4 km/h
00:35 -1.3 °C -3.6 °C -6.9 °C 84% 1021.3 hPa 0 W/m² 0.0 mm 0.000 mm 12.6 km/h
00:40 -1.3 °C -3.6 °C -6.3 °C 84% 1021.3 hPa 0 W/m² 0.0 mm 0.000 mm 11.7 km/h
00:45 -1.3 °C -3.6 °C -5.1 °C 84% 1021.4 hPa 0 W/m² 0.0 mm 0.000 mm 10.3 km/h
00:50 -1.4 °C -3.7 °C -5.6 °C 84% 1021.4 hPa 0 W/m² 0.0 mm 0.000 mm 10.7 km/h
00:55 -1.4 °C -3.7 °C -5.4 °C 84% 1021.4 hPa 0 W/m² 0.0 mm 0.000 mm 10.5 km/h
01:00 -1.4 °C -3.7 °C -4.7 °C 84% 1021.4 hPa 0 W/m² 0.0 mm 0.025 mm 9.7 km/h
01:05 -1.6 °C -3.9 °C -3.7 °C 84% 1021.4 hPa 0 W/m² 0.0 mm 0.000 mm 8.4 km/h
01:10 -1.6 °C -3.8 °C -3.1 °C 85% 1021.5 hPa 0 W/m² 0.0 mm 0.000 mm 7.8 km/h
01:15 -1.7 °C -3.9 °C -1.9 °C 85% 1021.6 hPa 0 W/m² 0.0 mm 0.000 mm 6.6 km/h
01:20 -1.8 °C -3.8 °C -1.8 °C 86% 1021.4 hPa 0 W/m² 0.0 mm 0.000 mm 4.4 km/h
01:25 -1.8 °C -3.8 °C -1.8 °C 86% 1021.4 hPa 0 W/m² 0.0 mm 0.000 mm 1.6 km/h
01:30 -1.9 °C -3.9 °C -1.9 °C 86% 1021.5 hPa 0 W/m² 0.0 mm 0.000 mm 1.0 km/h
01:35 -1.9 °C -3.9 °C -1.9 °C 86% 1021.5 hPa 0 W/m² 0.0 mm 0.000 mm 0.0 km/h
01:40 -2.0 °C -4.0 °C -2.0 °C 86% 1021.6 hPa 0 W/m² 0.0 mm 0.000 mm 0.0 km/h
01:45 -2.1 °C -4.1 °C -2.1 °C 86% 1021.6 hPa 0 W/m² 0.0 mm 0.000 mm 0.0 km/h
01:50 -2.1 °C -4.1 °C -2.1 °C 86% 1021.7 hPa 0 W/m² 0.0 mm 0.000 mm 0.0 km/h
01:55 -2.1 °C -4.1 °C -2.1 °C 86% 1021.7 hPa 0 W/m² 0.0 mm 0.000 mm 0.0 km/h
02:00 -2.1 °C -4.0 °C -2.1 °C 87% 1021.8 hPa 0 W/m² 0.0 mm 0.000 mm 0.0 km/h
02:05 -2.1 °C -4.1 °C -2.1 °C 86% 1021.7 hPa 0 W/m² 0.0 mm 0.000 mm 0.0 km/h
02:10 -2.1 °C -4.1 °C -2.1 °C 86% 1021.8 hPa 0 W/m² 0.0 mm 0.000 mm 0.0 km/h
02:15 -2.2 °C -4.1 °C -2.2 °C 87% 1021.8 hPa 0 W/m² 0.0 mm 0.000 mm 0.0 km/h
02:20 -2.3 °C -4.2 °C -2.3 °C 87% 1021.8 hPa 0 W/m² 0.0 mm 0.000 mm 0.0 km/h
02:25 -2.3 °C -4.2 °C -2.3 °C 87% 1021.8 hPa 0 W/m² 0.0 mm 0.000 mm 0.0 km/h
02:30 -2.3 °C -4.2 °C -2.3 °C 87% 1021.9 hPa 0 W/m² 0.0 mm 0.000 mm 0.0 km/h
02:35 -2.4 °C -4.3 °C -2.4 °C 87% 1021.9 hPa 0 W/m² 0.0 mm 0.000 mm 0.0 km/h
02:40 -2.4 °C -4.3 °C -2.4 °C 87% 1021.9 hPa 0 W/m² 0.0 mm 0.000 mm 0.0 km/h
02:45 -2.5 °C -4.4 °C -2.5 °C 87% 1021.9 hPa 0 W/m² 0.0 mm 0.000 mm 0.0 km/h
02:50 -2.5 °C -4.4 °C -2.5 °C 87% 1022.0 hPa 0 W/m² 0.0 mm 0.000 mm 0.0 km/h
02:55 -2.5 °C -4.4 °C -2.5 °C 87% 1022.1 hPa 0 W/m² 0.0 mm 0.000 mm 0.0 km/h
03:00 -2.6 °C -4.5 °C -2.6 °C 87% 1021.9 hPa 0 W/m² 0.0 mm 0.000 mm 0.0 km/h
03:05 -2.6 °C -4.5 °C -2.6 °C 87% 1022.1 hPa 0 W/m² 0.0 mm 0.000 mm 0.0 km/h
03:10 -2.6 °C -4.5 °C -2.6 °C 87% 1022.0 hPa 0 W/m² 0.0 mm 0.000 mm 0.0 km/h
03:15 -2.6 °C -4.5 °C -2.6 °C 87% 1022.2 hPa 0 W/m² 0.0 mm 0.000 mm 0.0 km/h
03:20 -2.8 °C -4.7 °C -2.8 °C 87% 1022.1 hPa 0 W/m² 0.0 mm 0.000 mm 0.0 km/h
03:25 -2.8 °C -4.5 °C -2.8 °C 88% 1022.1 hPa 0 W/m² 0.0 mm 0.000 mm 0.0 km/h
03:30 -2.7 °C -4.6 °C -2.7 °C 87% 1022.2 hPa 0 W/m² 0.0 mm 0.000 mm 3.1 km/h
03:35 -2.7 °C -4.6 °C -2.7 °C 87% 1022.2 hPa 0 W/m² 0.0 mm 0.000 mm 2.8 km/h
03:40 -2.7 °C -4.6 °C -2.7 °C 87% 1022.0 hPa 0 W/m² 0.0 mm 0.000 mm 3.9 km/h
03:45 -2.7 °C -4.6 °C -2.7 °C 87% 1022.2 hPa 0 W/m² 0.0 mm 0.000 mm 4.2 km/h
03:50 -2.8 °C -4.7 °C -2.8 °C 87% 1022.2 hPa 0 W/m² 0.0 mm 0.000 mm 3.8 km/h
03:55 -2.9 °C -4.6 °C -2.9 °C 88% 1022.1 hPa 0 W/m² 0.0 mm 0.000 mm 1.2 km/h
04:00 -2.9 °C -4.8 °C -2.9 °C 87% 1022.2 hPa 0 W/m² 0.0 mm 0.000 mm 0.0 km/h
04:05 -2.9 °C -4.8 °C -2.9 °C 87% 1022.3 hPa 0 W/m² 0.0 mm 0.000 mm 0.0 km/h
04:10 -2.8 °C -4.7 °C -2.8 °C 87% 1022.2 hPa 0 W/m² 0.0 mm 0.000 mm 0.0 km/h
04:15 -2.8 °C -4.7 °C -2.8 °C 87% 1022.2 hPa 0 W/m² 0.0 mm 0.000 mm 0.0 km/h
04:20 -2.9 °C -4.8 °C -2.9 °C 87% 1022.2 hPa 0 W/m² 0.0 mm 0.000 mm 0.0 km/h
04:25 -3.1 °C -4.9 °C -3.1 °C 87% 1022.4 hPa 0 W/m² 0.0 mm 0.000 mm 0.0 km/h
04:30 -3.1 °C -4.9 °C -3.1 °C 87% 1022.5 hPa 0 W/m² 0.0 mm 0.000 mm 0.0 km/h
04:35 -3.1 °C -4.9 °C -3.1 °C 87% 1022.5 hPa 0 W/m² 0.0 mm 0.000 mm 2.6 km/h